createdAt,value
2023-03-07T00:00:10.669Z,20.80
2023-03-07T00:01:10.635Z,21.10
2023-03-07T00:02:10.622Z,17.60
2023-03-07T00:03:10.673Z,19.00
2023-03-07T00:04:10.693Z,17.20
2023-03-07T00:05:10.576Z,17.80
2023-03-07T00:06:10.592Z,19.00
2023-03-07T00:07:10.567Z,19.10
2023-03-07T00:08:10.579Z,18.60
2023-03-07T00:09:10.608Z,14.30
2023-03-07T00:10:10.537Z,17.10
2023-03-07T00:11:10.533Z,16.50
2023-03-07T00:12:11.138Z,17.50
2023-03-07T00:13:10.497Z,16.60
2023-03-07T00:14:10.493Z,18.20
2023-03-07T00:15:10.541Z,18.40
2023-03-07T00:16:10.529Z,18.10
2023-03-07T00:17:10.452Z,17.50
2023-03-07T00:18:10.460Z,15.50
2023-03-07T00:19:10.476Z,14.50
2023-03-07T00:20:10.414Z,16.60
2023-03-07T00:21:10.937Z,16.50
2023-03-07T00:22:10.394Z,17.00
2023-03-07T00:23:10.387Z,16.50
2023-03-07T00:24:10.448Z,17.30
2023-03-07T00:25:10.380Z,11.00
2023-03-07T00:26:10.338Z,10.50
2023-03-07T00:27:10.392Z,16.80
2023-03-07T00:28:10.350Z,15.60
2023-03-07T00:29:10.356Z,14.80
2023-03-07T00:30:10.449Z,13.80
2023-03-07T00:31:10.359Z,15.80
2023-03-07T00:32:10.361Z,16.10
2023-03-07T00:33:10.264Z,14.40
2023-03-07T00:34:10.307Z,17.60
2023-03-07T00:35:10.291Z,16.30
2023-03-07T00:36:10.277Z,15.00
2023-03-07T00:37:10.224Z,16.10
2023-03-07T00:38:10.225Z,16.00
2023-03-07T00:39:10.203Z,18.50
2023-03-07T00:40:10.221Z,15.60
2023-03-07T00:41:10.270Z,12.50
2023-03-07T00:42:10.177Z,14.20
2023-03-07T00:43:11.202Z,10.90
2023-03-07T00:44:10.143Z,12.30
2023-03-07T00:45:10.183Z,15.80
2023-03-07T00:46:10.238Z,18.00
2023-03-07T00:47:10.160Z,10.40
2023-03-07T00:48:10.147Z,17.30
2023-03-07T00:49:11.120Z,16.30
2023-03-07T00:50:10.075Z,16.20
2023-03-07T00:51:10.132Z,14.90
2023-03-07T00:52:10.085Z,17.30
2023-03-07T00:53:10.092Z,14.10
2023-03-07T00:54:10.036Z,19.00
2023-03-07T00:55:10.041Z,16.90
2023-03-07T00:56:10.042Z,15.70
2023-03-07T00:57:10.118Z,12.30
2023-03-07T00:58:10.013Z,18.90
2023-03-07T00:59:10.028Z,14.00
2023-03-07T01:00:09.976Z,10.40
2023-03-07T01:01:10.056Z,11.40
2023-03-07T01:02:10.000Z,14.60
2023-03-07T01:03:09.946Z,15.20
2023-03-07T01:04:09.959Z,16.50
2023-03-07T01:05:09.938Z,15.10
2023-03-07T01:06:09.938Z,17.70
2023-03-07T01:07:09.896Z,11.00
2023-03-07T01:08:09.901Z,18.30
2023-03-07T01:09:09.865Z,16.10
2023-03-07T01:10:10.892Z,14.40
2023-03-07T01:11:09.843Z,17.20
2023-03-07T01:12:09.845Z,19.50
2023-03-07T01:13:09.904Z,21.50
2023-03-07T01:14:09.818Z,17.20
2023-03-07T01:15:09.794Z,13.90
2023-03-07T01:16:10.635Z,13.40
2023-03-07T01:17:09.811Z,14.40
2023-03-07T01:18:09.807Z,15.70
2023-03-07T01:19:09.757Z,13.00
2023-03-07T01:20:10.763Z,19.30
2023-03-07T01:21:09.771Z,15.20
2023-03-07T01:22:09.765Z,17.00
2023-03-07T01:23:09.755Z,15.90
2023-03-07T01:24:09.739Z,18.40
2023-03-07T01:25:09.699Z,19.10
2023-03-07T01:26:09.669Z,15.60
2023-03-07T01:27:09.712Z,15.20
2023-03-07T01:28:09.654Z,18.10
2023-03-07T01:29:09.690Z,12.80
2023-03-07T01:30:09.659Z,18.10
2023-03-07T01:31:09.616Z,16.00
2023-03-07T01:32:09.784Z,22.50
2023-03-07T01:33:09.633Z,16.80
2023-03-07T01:34:09.573Z,16.20
2023-03-07T01:35:09.622Z,14.80
2023-03-07T01:36:09.612Z,14.40
2023-03-07T01:37:09.561Z,14.50
2023-03-07T01:38:09.548Z,17.00
2023-03-07T01:39:09.544Z,18.70
2023-03-07T01:40:09.585Z,17.80
2023-03-07T01:41:09.549Z,16.00
2023-03-07T01:42:09.515Z,18.60
2023-03-07T01:43:09.483Z,16.60
2023-03-07T01:44:09.508Z,17.40
2023-03-07T01:45:09.502Z,16.70
2023-03-07T01:46:09.475Z,18.20
2023-03-07T01:47:09.509Z,20.30
2023-03-07T01:48:09.422Z,14.50
2023-03-07T01:49:09.441Z,13.40
2023-03-07T01:50:09.498Z,17.40
2023-03-07T01:51:09.420Z,16.30
2023-03-07T01:52:09.392Z,13.50
2023-03-07T01:53:09.419Z,21.40
2023-03-07T01:54:09.355Z,16.20
2023-03-07T01:55:09.382Z,14.60
2023-03-07T01:56:09.386Z,17.60
2023-03-07T01:57:09.324Z,14.90
2023-03-07T01:58:09.308Z,14.90
2023-03-07T01:59:09.367Z,16.10
2023-03-07T02:00:09.287Z,15.20
2023-03-07T02:01:09.326Z,21.10
2023-03-07T02:02:10.486Z,15.70
2023-03-07T02:03:09.565Z,15.10
2023-03-07T02:04:09.394Z,14.10
2023-03-07T02:05:09.276Z,17.70
2023-03-07T02:06:09.299Z,13.10
2023-03-07T02:07:09.676Z,18.50
2023-03-07T02:08:09.266Z,18.10
2023-03-07T02:09:09.214Z,14.90
2023-03-07T02:10:09.199Z,22.20
2023-03-07T02:11:09.355Z,15.40
2023-03-07T02:12:09.157Z,19.80
2023-03-07T02:13:09.196Z,20.10
2023-03-07T02:14:09.157Z,20.60
2023-03-07T02:15:09.112Z,17.50
2023-03-07T02:16:09.175Z,22.10
2023-03-07T02:17:09.122Z,24.50
2023-03-07T02:18:09.107Z,21.30
2023-03-07T02:19:09.069Z,17.70
2023-03-07T02:20:09.081Z,22.30
2023-03-07T02:21:09.051Z,20.20
2023-03-07T02:22:09.041Z,21.70
2023-03-07T02:23:09.069Z,23.40
2023-03-07T02:24:09.038Z,17.70
2023-03-07T02:25:09.000Z,18.70
2023-03-07T02:26:08.999Z,19.30
2023-03-07T02:27:09.066Z,25.20
2023-03-07T02:28:08.994Z,24.30
2023-03-07T02:29:09.004Z,24.00
2023-03-07T02:30:09.003Z,20.60
2023-03-07T02:31:09.084Z,19.70
2023-03-07T02:32:08.977Z,14.90
2023-03-07T02:33:09.014Z,20.50
2023-03-07T02:34:08.982Z,23.30
2023-03-07T02:35:10.029Z,16.30
2023-03-07T02:36:08.916Z,19.40
2023-03-07T02:37:08.917Z,24.50
2023-03-07T02:38:08.902Z,18.10
2023-03-07T02:39:08.962Z,26.10
2023-03-07T02:40:08.875Z,21.40
2023-03-07T02:41:08.822Z,23.10
2023-03-07T02:42:08.925Z,22.70
2023-03-07T02:43:08.830Z,24.50
2023-03-07T02:44:08.828Z,16.90
2023-03-07T02:45:08.863Z,20.00
2023-03-07T02:46:08.903Z,17.00
2023-03-07T02:47:08.809Z,20.30
2023-03-07T02:48:08.791Z,21.40
2023-03-07T02:49:08.771Z,23.00
2023-03-07T02:50:08.800Z,22.20
2023-03-07T02:51:08.781Z,21.20
2023-03-07T02:52:08.709Z,18.60
2023-03-07T02:53:08.779Z,22.40
2023-03-07T02:54:08.708Z,19.40
2023-03-07T02:55:08.729Z,19.30
2023-03-07T02:56:08.747Z,19.20
2023-03-07T02:57:08.655Z,19.10
2023-03-07T02:58:08.677Z,21.50
2023-03-07T02:59:08.637Z,23.30
2023-03-07T03:00:08.618Z,20.40
2023-03-07T03:01:08.648Z,19.80
2023-03-07T03:02:08.660Z,20.30
2023-03-07T03:03:08.576Z,21.60
2023-03-07T03:04:08.615Z,20.80
2023-03-07T03:05:08.604Z,22.70
2023-03-07T03:06:08.903Z,18.70
2023-03-07T03:07:08.628Z,22.00
2023-03-07T03:08:08.513Z,17.00
2023-03-07T03:09:08.500Z,23.50
2023-03-07T03:10:08.530Z,22.90
2023-03-07T03:11:08.486Z,22.00
2023-03-07T03:12:08.469Z,20.60
2023-03-07T03:13:08.522Z,20.90
2023-03-07T03:14:08.450Z,21.50
2023-03-07T03:15:08.731Z,15.00
2023-03-07T03:16:08.455Z,11.20
2023-03-07T03:17:08.423Z,20.40
2023-03-07T03:18:08.438Z,20.70
2023-03-07T03:19:08.457Z,11.70
2023-03-07T03:20:08.380Z,19.90
2023-03-07T03:21:08.368Z,19.40
2023-03-07T03:22:08.446Z,11.50
2023-03-07T03:23:08.340Z,19.80
2023-03-07T03:24:09.367Z,16.80
2023-03-07T03:25:08.321Z,14.20
2023-03-07T03:26:08.313Z,15.70
2023-03-07T03:27:08.316Z,19.10
2023-03-07T03:28:08.292Z,15.90
2023-03-07T03:29:08.311Z,20.00
2023-03-07T03:30:08.287Z,19.80
2023-03-07T03:31:08.366Z,19.10
2023-03-07T03:32:09.356Z,16.30
2023-03-07T03:33:08.245Z,18.40
2023-03-07T03:34:08.285Z,18.80
2023-03-07T03:35:08.235Z,17.80
2023-03-07T03:36:08.247Z,16.60
2023-03-07T03:37:08.168Z,18.50
2023-03-07T03:38:08.266Z,17.00
2023-03-07T03:39:08.165Z,19.70
2023-03-07T03:40:08.203Z,19.60
2023-03-07T03:41:08.263Z,17.40
2023-03-07T03:42:08.141Z,18.00
2023-03-07T03:43:08.122Z,18.30
2023-03-07T03:44:08.127Z,13.90
2023-03-07T03:45:08.174Z,16.80
2023-03-07T03:46:08.108Z,18.60
2023-03-07T03:47:08.085Z,17.80
2023-03-07T03:48:08.071Z,17.00
2023-03-07T03:49:08.046Z,18.10
2023-03-07T03:50:08.081Z,18.30
2023-03-07T03:51:08.031Z,14.90
2023-03-07T03:52:08.034Z,13.00
2023-03-07T03:53:08.006Z,15.10
2023-03-07T03:54:08.029Z,18.10
2023-03-07T03:55:07.999Z,19.10
2023-03-07T03:56:08.051Z,13.90
2023-03-07T03:57:07.986Z,13.50
2023-03-07T03:58:07.975Z,15.20
2023-03-07T03:59:07.933Z,16.70
2023-03-07T04:00:07.965Z,14.20
2023-03-07T04:01:08.637Z,14.90
2023-03-07T04:02:08.065Z,12.30
2023-03-07T04:03:08.011Z,14.90
2023-03-07T04:04:07.919Z,8.20
2023-03-07T04:05:07.861Z,10.80
2023-03-07T04:06:07.938Z,9.60
2023-03-07T04:07:07.867Z,15.40
2023-03-07T04:08:07.823Z,15.30
2023-03-07T04:09:07.876Z,14.50
2023-03-07T04:10:08.533Z,12.20
2023-03-07T04:11:07.797Z,15.50
2023-03-07T04:12:07.906Z,15.10
2023-03-07T04:13:07.821Z,13.10
2023-03-07T04:14:07.836Z,14.80
2023-03-07T04:15:07.773Z,14.40
2023-03-07T04:16:07.856Z,16.00
2023-03-07T04:17:07.849Z,13.40
2023-03-07T04:18:07.793Z,12.80
2023-03-07T04:19:07.742Z,14.70
2023-03-07T04:20:07.689Z,13.80
2023-03-07T04:21:07.807Z,14.40
2023-03-07T04:22:08.381Z,12.50
2023-03-07T04:23:07.770Z,14.50
2023-03-07T04:24:07.676Z,14.90
2023-03-07T04:25:07.665Z,12.80
2023-03-07T04:26:07.691Z,12.20
2023-03-07T04:27:07.719Z,13.40
2023-03-07T04:28:07.702Z,12.70
2023-03-07T04:29:07.592Z,13.50
2023-03-07T04:30:07.577Z,13.60
2023-03-07T04:31:07.584Z,12.40
2023-03-07T04:32:07.665Z,12.50
2023-03-07T04:33:07.730Z,9.90
2023-03-07T04:34:07.572Z,12.60
2023-03-07T04:35:07.529Z,12.20
2023-03-07T04:36:07.554Z,10.20
2023-03-07T04:37:09.329Z,12.50
2023-03-07T04:38:08.262Z,11.90
2023-03-07T04:39:07.805Z,12.40
2023-03-07T04:40:07.774Z,12.50
2023-03-07T04:41:07.833Z,12.20
2023-03-07T04:42:07.736Z,12.10
2023-03-07T04:43:07.531Z,6.20
2023-03-07T04:44:07.588Z,12.20
2023-03-07T04:45:07.528Z,10.80
2023-03-07T04:46:07.570Z,8.70
2023-03-07T04:47:08.004Z,11.20
2023-03-07T04:58:00.692Z,10.30
2023-03-07T04:59:00.657Z,9.30
2023-03-07T05:00:00.660Z,10.90
2023-03-07T05:01:00.767Z,10.90
2023-03-07T05:02:00.511Z,9.10
2023-03-07T05:03:00.501Z,7.30
2023-03-07T05:04:00.509Z,9.00
2023-03-07T05:05:00.484Z,9.50
2023-03-07T05:06:00.467Z,10.70
2023-03-07T05:07:00.444Z,12.10
2023-03-07T05:08:00.430Z,11.70
2023-03-07T05:09:00.420Z,10.40
2023-03-07T05:10:00.433Z,10.30
2023-03-07T05:11:00.454Z,10.80
2023-03-07T05:12:00.380Z,11.20
2023-03-07T05:13:00.370Z,10.30
2023-03-07T05:14:00.365Z,12.80
2023-03-07T05:15:00.345Z,8.80
2023-03-07T05:16:00.378Z,9.60
2023-03-07T05:17:00.356Z,11.10
2023-03-07T05:18:00.314Z,12.10
2023-03-07T05:19:00.301Z,10.40
2023-03-07T05:20:00.278Z,11.80
2023-03-07T05:21:00.280Z,10.60
2023-03-07T05:22:00.256Z,10.00
2023-03-07T05:23:00.290Z,7.40
2023-03-07T05:24:00.246Z,9.80
2023-03-07T05:25:00.232Z,11.10
2023-03-07T05:26:00.201Z,10.10
2023-03-07T05:27:00.219Z,10.40
2023-03-07T05:28:00.189Z,11.30
2023-03-07T05:29:00.192Z,11.70
2023-03-07T05:30:00.185Z,7.10
2023-03-07T05:31:00.236Z,11.70
2023-03-07T05:32:00.138Z,10.50
2023-03-07T05:33:00.142Z,10.50
2023-03-07T05:34:00.169Z,12.00
2023-03-07T05:35:00.108Z,9.40
2023-03-07T05:36:00.220Z,11.20
2023-03-07T05:37:00.099Z,10.60
2023-03-07T05:38:00.080Z,11.50
2023-03-07T05:39:00.082Z,9.30
2023-03-07T05:40:00.111Z,10.10
2023-03-07T05:41:00.032Z,9.20
2023-03-07T05:42:00.009Z,15.60
2023-03-07T05:43:00.000Z,14.00
2023-03-07T05:44:00.000Z,11.90
2023-03-07T05:44:59.982Z,19.90
2023-03-07T05:45:59.988Z,12.10
2023-03-07T05:46:59.949Z,11.70
2023-03-07T05:47:59.961Z,14.90
2023-03-07T05:48:59.929Z,12.40
2023-03-07T05:49:59.938Z,9.50
2023-03-07T05:50:59.936Z,11.30
2023-03-07T05:51:59.893Z,9.40
2023-03-07T05:52:59.884Z,10.10
2023-03-07T05:53:59.870Z,8.30
2023-03-07T05:54:59.898Z,6.60
2023-03-07T05:55:59.871Z,11.60
2023-03-07T05:56:59.850Z,9.30
2023-03-07T05:57:59.815Z,10.90
2023-03-07T05:58:59.805Z,10.60
2023-03-07T05:59:59.793Z,10.70
2023-03-07T06:00:59.788Z,9.70
2023-03-07T06:01:59.801Z,10.00
2023-03-07T06:02:59.790Z,9.70
2023-03-07T06:03:59.770Z,8.20
2023-03-07T06:04:59.739Z,7.10
2023-03-07T06:05:59.718Z,8.90
2023-03-07T06:06:59.708Z,11.10
2023-03-07T06:07:59.749Z,11.10
2023-03-07T06:08:59.690Z,10.80
2023-03-07T06:09:59.687Z,10.50
2023-03-07T06:10:59.658Z,10.30
2023-03-07T06:11:59.644Z,9.50
2023-03-07T06:12:59.704Z,11.00
2023-03-07T06:13:59.617Z,11.80
2023-03-07T06:14:59.628Z,10.60
2023-03-07T06:15:59.618Z,11.10
2023-03-07T06:16:59.583Z,10.70
2023-03-07T06:17:59.569Z,10.30
2023-03-07T06:18:59.620Z,10.40
2023-03-07T06:19:59.554Z,10.10
2023-03-07T06:20:59.570Z,9.50
2023-03-07T06:21:59.550Z,11.80
2023-03-07T06:22:59.519Z,11.00
2023-03-07T06:23:59.538Z,10.10
2023-03-07T06:24:59.488Z,7.90
2023-03-07T06:25:59.483Z,11.30
2023-03-07T06:26:59.461Z,10.60
2023-03-07T06:27:59.461Z,9.70
2023-03-07T06:28:59.439Z,10.40
2023-03-07T06:29:59.441Z,10.80
2023-03-07T06:30:59.570Z,10.00
2023-03-07T06:31:59.404Z,10.40
2023-03-07T06:32:59.398Z,11.10
2023-03-07T06:33:59.391Z,9.30
2023-03-07T06:34:59.417Z,9.00
2023-03-07T06:35:59.397Z,7.90
2023-03-07T06:36:59.334Z,10.80
2023-03-07T06:37:59.318Z,10.40
2023-03-07T06:38:59.320Z,11.40
2023-03-07T06:39:59.298Z,10.90
2023-03-07T06:40:59.314Z,10.80
2023-03-07T06:41:59.268Z,10.30
2023-03-07T06:42:59.261Z,10.30
2023-03-07T06:43:59.254Z,9.80
2023-03-07T06:44:59.246Z,10.20
2023-03-07T06:45:59.278Z,9.20
2023-03-07T06:46:59.216Z,9.30
2023-03-07T06:47:59.196Z,10.80
2023-03-07T06:48:59.191Z,10.30
2023-03-07T06:49:59.585Z,11.60
2023-03-07T06:50:59.185Z,11.20
2023-03-07T06:51:59.166Z,9.00
2023-03-07T06:52:59.134Z,10.90
2023-03-07T06:53:59.126Z,9.40
2023-03-07T06:54:59.113Z,12.20
2023-03-07T06:55:59.108Z,10.20
2023-03-07T06:56:59.129Z,9.00
2023-03-07T06:57:59.101Z,10.10
2023-03-07T06:58:59.067Z,10.70
2023-03-07T06:59:59.054Z,8.40
2023-03-07T07:00:59.039Z,9.40
2023-03-07T07:01:59.206Z,12.30
2023-03-07T07:02:59.169Z,8.50
2023-03-07T07:03:59.004Z,11.80
2023-03-07T07:05:01.054Z,9.60
2023-03-07T07:05:59.005Z,9.60
2023-03-07T07:06:59.011Z,11.60
2023-03-07T07:07:59.023Z,4.50
2023-03-07T07:08:58.956Z,11.00
2023-03-07T07:09:58.932Z,12.10
2023-03-07T07:10:58.935Z,5.60
2023-03-07T07:11:58.914Z,11.40
2023-03-07T07:12:58.916Z,11.40
2023-03-07T07:13:58.911Z,11.90
2023-03-07T07:14:58.881Z,10.50
2023-03-07T07:15:58.869Z,10.60
2023-03-07T07:16:58.859Z,11.40
2023-03-07T07:17:58.844Z,13.20
2023-03-07T07:18:58.870Z,8.20
2023-03-07T07:19:58.820Z,7.50
2023-03-07T07:20:58.811Z,11.60
2023-03-07T07:21:58.805Z,10.90
2023-03-07T07:22:58.786Z,11.10
2023-03-07T07:23:58.785Z,13.00
2023-03-07T07:24:58.793Z,9.80
2023-03-07T07:25:58.745Z,10.10
2023-03-07T07:26:58.739Z,11.90
2023-03-07T07:27:58.725Z,6.10
2023-03-07T07:28:58.720Z,12.00
2023-03-07T07:29:58.711Z,13.70
2023-03-07T07:30:58.717Z,7.70
2023-03-07T07:31:58.834Z,11.20
2023-03-07T07:32:59.939Z,13.70
2023-03-07T07:33:59.878Z,10.70
2023-03-07T07:34:59.769Z,13.90
2023-03-07T07:36:00.595Z,10.60
2023-03-07T07:36:59.758Z,7.40
2023-03-07T07:37:59.731Z,13.90
2023-03-07T07:38:59.732Z,7.70
2023-03-07T07:39:59.709Z,12.00
2023-03-07T07:40:59.742Z,11.40
2023-03-07T07:41:59.690Z,10.90
2023-03-07T07:42:59.673Z,9.50
2023-03-07T07:43:59.673Z,10.00
2023-03-07T07:45:00.384Z,10.40
2023-03-07T07:45:59.748Z,7.90
2023-03-07T07:46:59.622Z,13.60
2023-03-07T07:47:59.615Z,7.70
2023-03-07T07:48:59.612Z,13.00
2023-03-07T07:49:59.592Z,8.70
2023-03-07T07:50:59.593Z,8.70
2023-03-07T07:51:59.629Z,13.30
2023-03-07T07:52:59.553Z,9.60
2023-03-07T07:53:59.546Z,12.60
2023-03-07T07:54:59.529Z,10.70
2023-03-07T07:55:59.528Z,8.00
2023-03-07T07:56:59.690Z,14.00
2023-03-07T07:57:59.525Z,6.30
2023-03-07T07:58:59.510Z,7.80
2023-03-07T07:59:59.470Z,12.50
2023-03-07T08:00:59.491Z,8.30
2023-03-07T08:01:59.498Z,11.90
2023-03-07T08:02:59.467Z,10.70
2023-03-07T08:03:59.437Z,11.20
2023-03-07T08:04:59.427Z,14.20
2023-03-07T08:05:59.411Z,7.90
2023-03-07T08:06:59.406Z,11.40
2023-03-07T08:07:59.409Z,11.00
2023-03-07T08:08:59.371Z,11.70
2023-03-07T08:09:59.382Z,11.20
2023-03-07T08:10:59.356Z,9.40
2023-03-07T08:11:59.347Z,7.90
2023-03-07T08:12:59.444Z,14.00
2023-03-07T08:13:59.351Z,8.80
2023-03-07T08:14:59.341Z,12.60
2023-03-07T08:15:59.457Z,14.60
2023-03-07T08:16:59.298Z,9.10
2023-03-07T08:17:59.353Z,11.40
2023-03-07T08:18:59.302Z,12.10
2023-03-07T08:20:01.297Z,8.40
2023-03-07T08:20:59.410Z,11.10
2023-03-07T08:21:59.273Z,12.40
2023-03-07T08:22:59.242Z,7.90
2023-03-07T08:23:59.300Z,13.60
2023-03-07T08:24:59.231Z,7.60
2023-03-07T08:25:59.231Z,14.90
2023-03-07T08:26:59.192Z,12.40
2023-03-07T08:27:59.178Z,8.10
2023-03-07T08:28:59.199Z,12.20
2023-03-07T08:29:59.145Z,8.30
2023-03-07T08:30:59.178Z,13.90
2023-03-07T08:31:59.136Z,15.30
2023-03-07T08:32:59.131Z,8.40
2023-03-07T08:33:59.119Z,14.40
2023-03-07T08:34:59.122Z,9.40
2023-03-07T08:35:59.148Z,10.90
2023-03-07T08:36:59.106Z,16.90
2023-03-07T08:37:59.090Z,9.60
2023-03-07T08:38:59.057Z,15.10
2023-03-07T08:39:59.071Z,12.60
2023-03-07T08:40:59.030Z,8.80
2023-03-07T08:41:59.027Z,11.40
2023-03-07T08:42:59.006Z,12.20
2023-03-07T08:43:59.012Z,9.80
2023-03-07T08:44:59.002Z,12.00
2023-03-07T08:45:59.003Z,8.20
2023-03-07T08:46:58.969Z,11.10
2023-03-07T08:47:58.970Z,8.10
2023-03-07T08:48:58.958Z,12.90
2023-03-07T08:49:58.938Z,16.70
2023-03-07T08:50:58.936Z,7.80
2023-03-07T08:51:58.918Z,16.10
2023-03-07T08:52:58.930Z,9.70
2023-03-07T08:53:58.893Z,10.00
2023-03-07T08:54:58.870Z,12.50
2023-03-07T08:55:58.954Z,10.40
2023-03-07T08:56:58.847Z,15.20
2023-03-07T08:57:58.843Z,12.20
2023-03-07T08:58:58.831Z,9.90
2023-03-07T08:59:58.805Z,13.20
2023-03-07T09:00:58.821Z,9.90
2023-03-07T09:01:58.878Z,13.50
2023-03-07T09:02:58.762Z,16.60
2023-03-07T09:03:58.761Z,9.00
2023-03-07T09:04:58.902Z,11.40
2023-03-07T09:05:58.738Z,11.60
2023-03-07T09:07:00.114Z,10.80
2023-03-07T09:07:58.716Z,17.40
2023-03-07T09:08:58.700Z,11.20
2023-03-07T09:09:58.710Z,16.00
2023-03-07T09:10:58.677Z,8.80
2023-03-07T09:11:58.732Z,16.40
2023-03-07T09:12:58.650Z,13.40
2023-03-07T09:13:58.725Z,13.70
2023-03-07T09:14:58.652Z,13.90
2023-03-07T09:15:59.685Z,7.50
2023-03-07T09:16:58.649Z,16.00
2023-03-07T09:17:58.587Z,13.40
2023-03-07T09:18:58.583Z,8.90
2023-03-07T09:19:58.581Z,15.40
2023-03-07T09:20:58.550Z,10.60
2023-03-07T09:21:58.555Z,15.20
2023-03-07T09:22:58.594Z,14.90
2023-03-07T09:23:58.535Z,7.70
2023-03-07T09:24:58.543Z,13.00
2023-03-07T09:25:58.522Z,16.90
2023-03-07T09:26:58.524Z,10.00
2023-03-07T09:27:58.536Z,14.30
2023-03-07T09:28:58.485Z,17.10
2023-03-07T09:29:58.466Z,8.00
2023-03-07T09:30:58.458Z,15.40
2023-03-07T09:31:58.421Z,11.90
2023-03-07T09:32:58.455Z,10.30
2023-03-07T09:33:58.442Z,12.10
2023-03-07T09:34:58.680Z,12.80
2023-03-07T09:35:58.427Z,14.10
2023-03-07T09:36:58.523Z,9.80
2023-03-07T09:37:58.366Z,12.10
2023-03-07T09:38:58.373Z,11.60
2023-03-07T09:39:58.340Z,9.00
2023-03-07T09:40:58.359Z,14.70
2023-03-07T09:41:58.323Z,11.70
2023-03-07T09:42:58.331Z,8.60
2023-03-07T09:43:58.560Z,10.80
2023-03-07T09:44:58.285Z,10.70
2023-03-07T09:45:58.457Z,9.90
2023-03-07T09:46:58.268Z,11.30
2023-03-07T09:47:58.266Z,10.80
2023-03-07T09:48:58.269Z,8.00
2023-03-07T09:49:58.213Z,11.00
2023-03-07T09:50:59.354Z,8.00
2023-03-07T09:51:58.220Z,11.80
2023-03-07T09:52:58.184Z,14.20
2023-03-07T09:53:58.162Z,8.40
2023-03-07T09:54:58.232Z,12.10
2023-03-07T09:55:58.157Z,14.30
2023-03-07T09:56:58.173Z,8.70
2023-03-07T09:57:58.140Z,12.70
2023-03-07T09:58:58.131Z,11.30
2023-03-07T09:59:58.152Z,8.00
2023-03-07T10:00:58.105Z,12.10
2023-03-07T10:01:58.098Z,7.90
2023-03-07T10:02:58.067Z,9.10
2023-03-07T10:03:58.207Z,10.20
2023-03-07T10:04:58.109Z,9.50
2023-03-07T10:05:58.046Z,12.00
2023-03-07T10:06:58.560Z,7.30
2023-03-07T10:07:58.008Z,8.70
2023-03-07T10:08:58.047Z,9.50
2023-03-07T10:09:58.051Z,9.00
2023-03-07T10:10:57.992Z,12.40
2023-03-07T10:11:58.038Z,13.00
2023-03-07T10:12:57.982Z,8.40
2023-03-07T10:13:57.939Z,12.10
2023-03-07T10:14:57.954Z,11.50
2023-03-07T10:15:57.945Z,6.90
2023-03-07T10:16:57.952Z,8.10
2023-03-07T10:17:57.901Z,7.70
2023-03-07T10:18:57.885Z,12.50
2023-03-07T10:19:57.875Z,12.60
2023-03-07T10:20:57.896Z,13.40
2023-03-07T10:21:57.833Z,8.60
2023-03-07T10:22:57.830Z,10.60
2023-03-07T10:23:57.829Z,8.20
2023-03-07T10:24:57.807Z,10.80
2023-03-07T10:25:57.850Z,12.00
2023-03-07T10:26:57.824Z,9.30
2023-03-07T10:27:57.783Z,11.40
2023-03-07T10:28:57.822Z,8.80
2023-03-07T10:29:58.385Z,9.20
2023-03-07T10:30:57.779Z,9.60
2023-03-07T10:31:57.777Z,6.00
2023-03-07T10:32:57.727Z,9.00
2023-03-07T10:33:57.736Z,10.30
2023-03-07T10:34:57.832Z,6.50
2023-03-07T10:35:57.691Z,8.40
2023-03-07T10:37:08.428Z,11.10
2023-03-07T10:37:57.677Z,6.90
2023-03-07T10:38:58.204Z,10.60
2023-03-07T10:39:57.646Z,11.00
2023-03-07T10:40:57.626Z,10.60
2023-03-07T10:41:57.696Z,8.80
2023-03-07T10:42:57.605Z,11.50
2023-03-07T10:43:57.597Z,11.00
2023-03-07T10:44:57.586Z,7.70
2023-03-07T10:45:57.648Z,10.40
2023-03-07T10:46:57.724Z,10.80
2023-03-07T10:47:57.555Z,8.40
2023-03-07T10:48:57.534Z,10.60
2023-03-07T10:49:57.528Z,9.30
2023-03-07T10:50:57.504Z,7.80
2023-03-07T10:51:57.515Z,10.40
2023-03-07T10:52:57.499Z,6.70
2023-03-07T10:53:57.475Z,8.40
2023-03-07T10:54:57.472Z,9.90
2023-03-07T10:55:57.444Z,7.30
2023-03-07T10:56:57.468Z,10.10
2023-03-07T10:57:57.625Z,10.00
2023-03-07T10:58:57.405Z,7.60
2023-03-07T10:59:57.395Z,10.60
2023-03-07T11:00:57.409Z,10.00
2023-03-07T11:01:57.401Z,9.30
2023-03-07T11:02:57.388Z,9.90
2023-03-07T11:03:58.642Z,10.50
2023-03-07T11:04:58.349Z,9.80
2023-03-07T11:05:57.337Z,6.70
2023-03-07T11:06:57.344Z,10.30
2023-03-07T11:07:57.323Z,10.80
2023-03-07T11:08:57.287Z,7.70
2023-03-07T11:09:57.300Z,9.60
2023-03-07T11:10:57.271Z,10.40
2023-03-07T11:11:57.289Z,9.00
2023-03-07T11:12:57.256Z,10.10
2023-03-07T11:13:57.252Z,6.80
2023-03-07T11:14:57.223Z,8.30
2023-03-07T11:16:10.637Z,9.60
2023-03-07T11:16:57.247Z,6.60
2023-03-07T11:17:57.213Z,6.10
2023-03-07T11:18:57.171Z,9.80
2023-03-07T11:19:57.178Z,7.50
2023-03-07T11:20:57.153Z,8.60
2023-03-07T11:21:57.191Z,6.50
2023-03-07T11:22:57.136Z,7.70
2023-03-07T11:23:57.166Z,7.60
2023-03-07T11:24:57.107Z,8.50
2023-03-07T11:25:57.096Z,9.00
2023-03-07T11:26:57.084Z,7.20
2023-03-07T11:27:57.088Z,8.20
2023-03-07T11:28:57.126Z,8.60
2023-03-07T11:29:57.053Z,7.10
2023-03-07T11:30:57.042Z,8.00
2023-03-07T11:31:57.025Z,8.50
2023-03-07T11:32:57.041Z,7.10
2023-03-07T11:33:59.479Z,7.20
2023-03-07T11:34:58.009Z,8.00
2023-03-07T11:35:56.996Z,9.40
2023-03-07T11:36:56.966Z,8.90
2023-03-07T11:37:56.994Z,8.20
2023-03-07T11:38:56.950Z,5.60
2023-03-07T11:39:56.945Z,8.20
2023-03-07T11:40:56.924Z,8.00
2023-03-07T11:41:56.911Z,7.80
2023-03-07T11:42:56.922Z,7.30
2023-03-07T11:43:56.924Z,6.80
2023-03-07T11:44:56.884Z,8.00
2023-03-07T11:45:56.873Z,7.40
2023-03-07T11:46:56.860Z,6.60
2023-03-07T11:47:56.861Z,6.60
2023-03-07T11:48:56.857Z,7.00
2023-03-07T11:49:56.820Z,6.60
2023-03-07T11:50:56.811Z,5.20
2023-03-07T11:51:56.800Z,6.50
2023-03-07T11:52:56.820Z,7.30
2023-03-07T11:53:56.768Z,5.60
2023-03-07T11:54:56.774Z,7.80
2023-03-07T11:55:56.764Z,7.80
2023-03-07T11:56:56.740Z,7.00
2023-03-07T11:57:56.785Z,4.80
2023-03-07T11:58:56.966Z,7.10
2023-03-07T11:59:56.708Z,6.60
2023-03-07T12:00:56.718Z,7.60
2023-03-07T12:01:56.699Z,5.90
2023-03-07T12:02:56.761Z,6.10
2023-03-07T12:03:56.675Z,8.10
2023-03-07T12:04:56.662Z,7.30
2023-03-07T12:05:56.696Z,6.10
2023-03-07T12:06:56.639Z,7.80
2023-03-07T12:07:56.625Z,7.90
2023-03-07T12:08:56.668Z,7.40
2023-03-07T12:09:56.622Z,6.90
2023-03-07T12:10:56.592Z,5.40
2023-03-07T12:11:56.566Z,6.90
2023-03-07T12:12:56.576Z,6.40
2023-03-07T12:13:56.582Z,7.50
2023-03-07T12:14:56.539Z,6.40
2023-03-07T12:15:56.574Z,6.30
2023-03-07T12:16:56.550Z,8.00
2023-03-07T12:17:56.505Z,8.10
2023-03-07T12:18:56.505Z,5.70
2023-03-07T12:19:56.524Z,6.10
2023-03-07T12:20:56.483Z,6.30
2023-03-07T12:21:56.479Z,7.80
2023-03-07T12:22:56.446Z,7.00
2023-03-07T12:23:56.453Z,5.00
2023-03-07T12:24:56.478Z,6.90
2023-03-07T12:25:56.434Z,7.50
2023-03-07T12:26:56.412Z,7.80
2023-03-07T12:27:56.415Z,7.20
2023-03-07T12:28:56.483Z,6.80
2023-03-07T12:29:56.382Z,8.10
2023-03-07T12:30:56.395Z,7.70
2023-03-07T12:31:56.407Z,6.90
2023-03-07T12:32:56.425Z,6.90
2023-03-07T12:33:56.356Z,9.50
2023-03-07T12:34:56.315Z,10.70
2023-03-07T12:35:56.466Z,8.20
2023-03-07T12:36:56.316Z,4.90
2023-03-07T12:37:56.309Z,7.70
2023-03-07T12:38:56.288Z,7.30
2023-03-07T12:39:56.266Z,5.70
2023-03-07T12:40:56.306Z,5.90
2023-03-07T12:41:56.251Z,7.00
2023-03-07T12:42:56.250Z,6.80
2023-03-07T12:43:56.210Z,5.00
2023-03-07T12:44:56.236Z,4.80
2023-03-07T12:45:56.253Z,5.40
2023-03-07T12:46:56.212Z,4.00
2023-03-07T12:47:57.240Z,4.30
2023-03-07T12:48:56.174Z,3.70
2023-03-07T12:49:56.175Z,3.00
2023-03-07T12:50:56.134Z,2.40
2023-03-07T12:51:56.151Z,2.20
2023-03-07T12:52:57.119Z,1.90
2023-03-07T12:53:56.107Z,1.80
2023-03-07T12:54:56.104Z,2.00
2023-03-07T12:55:56.082Z,2.20
2023-03-07T12:56:56.099Z,1.40
2023-03-07T12:57:56.065Z,1.90
2023-03-07T12:58:56.040Z,2.00
2023-03-07T12:59:56.051Z,2.40
2023-03-07T13:00:56.062Z,1.90
2023-03-07T13:01:56.082Z,1.80
2023-03-07T13:02:56.015Z,1.50
2023-03-07T13:03:55.989Z,1.50
2023-03-07T13:04:55.981Z,1.80
2023-03-07T13:05:55.955Z,1.50
2023-03-07T13:06:55.966Z,3.40
2023-03-07T13:07:55.933Z,1.40
2023-03-07T13:08:55.924Z,1.70
2023-03-07T13:09:55.905Z,1.50